sensor_id;sensor_type;location;lat;lon;timestamp;temperature;humidity
56162;DHT22;42045;52.986;6.014;2022-08-03T00:00:40;18.60;99.90
56162;DHT22;42045;52.986;6.014;2022-08-03T00:03:05;18.70;99.90
56162;DHT22;42045;52.986;6.014;2022-08-03T00:05:31;18.70;99.90
56162;DHT22;42045;52.986;6.014;2022-08-03T00:08:01;18.70;99.90
56162;DHT22;42045;52.986;6.014;2022-08-03T00:10:26;18.70;99.90
56162;DHT22;42045;52.986;6.014;2022-08-03T00:12:52;18.60;99.90
56162;DHT22;42045;52.986;6.014;2022-08-03T00:15:18;18.70;99.90
56162;DHT22;42045;52.986;6.014;2022-08-03T00:17:44;18.70;99.90
56162;DHT22;42045;52.986;6.014;2022-08-03T00:20:10;18.70;99.90
56162;DHT22;42045;52.986;6.014;2022-08-03T00:22:35;18.70;99.90
56162;DHT22;42045;52.986;6.014;2022-08-03T00:25:01;18.60;99.90
56162;DHT22;42045;52.986;6.014;2022-08-03T00:27:27;18.50;99.90
56162;DHT22;42045;52.986;6.014;2022-08-03T00:29:52;18.50;99.90
56162;DHT22;42045;52.986;6.014;2022-08-03T00:32:18;18.50;99.90
56162;DHT22;42045;52.986;6.014;2022-08-03T00:34:44;18.40;99.90
56162;DHT22;42045;52.986;6.014;2022-08-03T00:37:09;18.40;99.90
56162;DHT22;42045;52.986;6.014;2022-08-03T00:39:36;18.40;99.90
56162;DHT22;42045;52.986;6.014;2022-08-03T00:42:02;18.30;99.90
56162;DHT22;42045;52.986;6.014;2022-08-03T00:44:28;18.30;99.90
56162;DHT22;42045;52.986;6.014;2022-08-03T00:46:53;18.30;99.90
56162;DHT22;42045;52.986;6.014;2022-08-03T00:49:19;18.30;99.90
56162;DHT22;42045;52.986;6.014;2022-08-03T00:51:46;18.30;99.90
56162;DHT22;42045;52.986;6.014;2022-08-03T00:54:12;18.30;99.90
56162;DHT22;42045;52.986;6.014;2022-08-03T00:56:38;18.30;99.90
56162;DHT22;42045;52.986;6.014;2022-08-03T00:59:05;18.20;99.90
56162;DHT22;42045;52.986;6.014;2022-08-03T01:01:31;18.30;99.90
56162;DHT22;42045;52.986;6.014;2022-08-03T01:03:56;18.20;99.90
56162;DHT22;42045;52.986;6.014;2022-08-03T01:06:56;18.20;99.90
56162;DHT22;42045;52.986;6.014;2022-08-03T01:15:04;18.10;99.90
56162;DHT22;42045;52.986;6.014;2022-08-03T01:17:33;18.10;99.90
56162;DHT22;42045;52.986;6.014;2022-08-03T01:20:03;18.10;99.90
56162;DHT22;42045;52.986;6.014;2022-08-03T01:27:59;18.20;99.90
56162;DHT22;42045;52.986;6.014;2022-08-03T01:30:31;18.10;99.90
56162;DHT22;42045;52.986;6.014;2022-08-03T01:33:01;18.20;99.90
56162;DHT22;42045;52.986;6.014;2022-08-03T01:35:31;18.20;99.90
56162;DHT22;42045;52.986;6.014;2022-08-03T01:38:02;18.20;99.90
56162;DHT22;42045;52.986;6.014;2022-08-03T01:40:28;18.10;99.90
56162;DHT22;42045;52.986;6.014;2022-08-03T01:42:56;18.10;99.90
56162;DHT22;42045;52.986;6.014;2022-08-03T01:45:23;18.10;99.90
56162;DHT22;42045;52.986;6.014;2022-08-03T01:47:49;18.10;99.90
56162;DHT22;42045;52.986;6.014;2022-08-03T01:50:22;18.10;99.90
56162;DHT22;42045;52.986;6.014;2022-08-03T01:52:49;18.10;99.90
56162;DHT22;42045;52.986;6.014;2022-08-03T01:55:16;18.10;99.90
56162;DHT22;42045;52.986;6.014;2022-08-03T01:57:43;18.10;99.90
56162;DHT22;42045;52.986;6.014;2022-08-03T02:00:10;18.10;99.90
56162;DHT22;42045;52.986;6.014;2022-08-03T02:02:36;18.10;99.90
56162;DHT22;42045;52.986;6.014;2022-08-03T02:05:03;18.10;99.90
56162;DHT22;42045;52.986;6.014;2022-08-03T02:07:30;18.00;99.90
56162;DHT22;42045;52.986;6.014;2022-08-03T02:09:56;18.00;99.90
56162;DHT22;42045;52.986;6.014;2022-08-03T02:12:23;17.90;99.90
56162;DHT22;42045;52.986;6.014;2022-08-03T02:14:49;18.00;99.90
56162;DHT22;42045;52.986;6.014;2022-08-03T02:17:17;17.90;99.90
56162;DHT22;42045;52.986;6.014;2022-08-03T02:19:43;17.90;99.90
56162;DHT22;42045;52.986;6.014;2022-08-03T02:22:12;17.90;99.90
56162;DHT22;42045;52.986;6.014;2022-08-03T02:24:47;17.90;99.90
56162;DHT22;42045;52.986;6.014;2022-08-03T02:27:23;17.90;99.90
56162;DHT22;42045;52.986;6.014;2022-08-03T02:29:52;17.90;99.90
56162;DHT22;42045;52.986;6.014;2022-08-03T02:32:19;17.80;99.90
56162;DHT22;42045;52.986;6.014;2022-08-03T02:34:46;17.80;99.90
56162;DHT22;42045;52.986;6.014;2022-08-03T02:37:18;17.80;99.90
56162;DHT22;42045;52.986;6.014;2022-08-03T02:39:45;17.80;99.90
56162;DHT22;42045;52.986;6.014;2022-08-03T02:42:12;17.70;99.90
56162;DHT22;42045;52.986;6.014;2022-08-03T02:44:43;17.80;99.90
56162;DHT22;42045;52.986;6.014;2022-08-03T02:47:12;17.70;99.90
56162;DHT22;42045;52.986;6.014;2022-08-03T02:49:40;17.80;99.90
56162;DHT22;42045;52.986;6.014;2022-08-03T02:52:08;17.70;99.90
56162;DHT22;42045;52.986;6.014;2022-08-03T02:54:34;17.70;99.90
56162;DHT22;42045;52.986;6.014;2022-08-03T02:57:00;17.70;99.90
56162;DHT22;42045;52.986;6.014;2022-08-03T02:59:26;17.60;99.90
56162;DHT22;42045;52.986;6.014;2022-08-03T03:01:54;17.60;99.90
56162;DHT22;42045;52.986;6.014;2022-08-03T03:04:20;17.60;99.90
56162;DHT22;42045;52.986;6.014;2022-08-03T03:06:45;17.70;99.90
56162;DHT22;42045;52.986;6.014;2022-08-03T03:09:12;17.60;99.90
56162;DHT22;42045;52.986;6.014;2022-08-03T03:11:38;17.50;99.90
56162;DHT22;42045;52.986;6.014;2022-08-03T03:14:08;17.60;99.90
56162;DHT22;42045;52.986;6.014;2022-08-03T03:16:35;17.60;99.90
56162;DHT22;42045;52.986;6.014;2022-08-03T03:19:04;17.50;99.90
56162;DHT22;42045;52.986;6.014;2022-08-03T03:21:29;17.50;99.90
56162;DHT22;42045;52.986;6.014;2022-08-03T03:23:55;17.50;99.90
56162;DHT22;42045;52.986;6.014;2022-08-03T03:26:21;17.50;99.90
56162;DHT22;42045;52.986;6.014;2022-08-03T03:28:47;17.50;99.90
56162;DHT22;42045;52.986;6.014;2022-08-03T03:31:12;17.40;99.90
56162;DHT22;42045;52.986;6.014;2022-08-03T03:33:38;17.40;99.90
56162;DHT22;42045;52.986;6.014;2022-08-03T03:36:05;17.40;99.90
56162;DHT22;42045;52.986;6.014;2022-08-03T03:38:31;17.40;99.90
56162;DHT22;42045;52.986;6.014;2022-08-03T03:40:57;17.40;99.90
56162;DHT22;42045;52.986;6.014;2022-08-03T03:43:23;17.40;99.90
56162;DHT22;42045;52.986;6.014;2022-08-03T03:45:49;17.40;99.90
56162;DHT22;42045;52.986;6.014;2022-08-03T03:48:15;17.30;99.90
56162;DHT22;42045;52.986;6.014;2022-08-03T03:50:42;17.40;99.90
56162;DHT22;42045;52.986;6.014;2022-08-03T03:53:08;17.30;99.90
56162;DHT22;42045;52.986;6.014;2022-08-03T03:55:35;17.30;99.90
56162;DHT22;42045;52.986;6.014;2022-08-03T03:58:00;17.40;99.90
56162;DHT22;42045;52.986;6.014;2022-08-03T04:00:28;17.40;99.90
56162;DHT22;42045;52.986;6.014;2022-08-03T04:02:53;17.30;99.90
56162;DHT22;42045;52.986;6.014;2022-08-03T04:05:19;17.30;99.90
56162;DHT22;42045;52.986;6.014;2022-08-03T04:08:07;17.30;99.90
56162;DHT22;42045;52.986;6.014;2022-08-03T04:10:54;17.30;99.90
56162;DHT22;42045;52.986;6.014;2022-08-03T04:13:23;17.30;99.90
56162;DHT22;42045;52.986;6.014;2022-08-03T04:15:49;17.40;99.90
56162;DHT22;42045;52.986;6.014;2022-08-03T04:18:16;17.30;99.90
56162;DHT22;42045;52.986;6.014;2022-08-03T04:20:43;17.40;99.90
56162;DHT22;42045;52.986;6.014;2022-08-03T04:23:11;17.40;99.90
56162;DHT22;42045;52.986;6.014;2022-08-03T04:25:37;17.30;99.90
56162;DHT22;42045;52.986;6.014;2022-08-03T04:28:04;17.30;99.90
56162;DHT22;42045;52.986;6.014;2022-08-03T04:30:30;17.50;99.90
56162;DHT22;42045;52.986;6.014;2022-08-03T04:33:00;17.40;99.90
56162;DHT22;42045;52.986;6.014;2022-08-03T04:35:28;17.50;99.90
56162;DHT22;42045;52.986;6.014;2022-08-03T04:37:55;17.50;99.90
56162;DHT22;42045;52.986;6.014;2022-08-03T04:40:24;17.50;99.90
56162;DHT22;42045;52.986;6.014;2022-08-03T04:42:49;17.60;99.90
56162;DHT22;42045;52.986;6.014;2022-08-03T04:45:17;17.60;99.90
56162;DHT22;42045;52.986;6.014;2022-08-03T04:47:43;17.70;99.90
56162;DHT22;42045;52.986;6.014;2022-08-03T04:50:09;18.00;99.90
56162;DHT22;42045;52.986;6.014;2022-08-03T04:52:35;18.80;99.90
56162;DHT22;42045;52.986;6.014;2022-08-03T04:55:01;19.90;99.90
56162;DHT22;42045;52.986;6.014;2022-08-03T04:57:27;20.70;99.90
56162;DHT22;42045;52.986;6.014;2022-08-03T04:59:53;21.50;99.90
56162;DHT22;42045;52.986;6.014;2022-08-03T05:02:19;22.00;99.90
56162;DHT22;42045;52.986;6.014;2022-08-03T05:04:45;22.70;99.90
56162;DHT22;42045;52.986;6.014;2022-08-03T05:07:14;22.90;99.90
56162;DHT22;42045;52.986;6.014;2022-08-03T05:09:40;23.10;99.90
56162;DHT22;42045;52.986;6.014;2022-08-03T05:12:05;23.60;99.90
56162;DHT22;42045;52.986;6.014;2022-08-03T05:14:31;24.20;99.90
56162;DHT22;42045;52.986;6.014;2022-08-03T05:16:57;24.30;99.90
56162;DHT22;42045;52.986;6.014;2022-08-03T05:19:23;24.40;99.90
56162;DHT22;42045;52.986;6.014;2022-08-03T05:21:48;24.50;99.90
56162;DHT22;42045;52.986;6.014;2022-08-03T05:24:14;24.90;99.90
56162;DHT22;42045;52.986;6.014;2022-08-03T05:26:40;24.90;99.90
56162;DHT22;42045;52.986;6.014;2022-08-03T05:29:06;24.50;99.90
56162;DHT22;42045;52.986;6.014;2022-08-03T05:31:31;24.30;99.90
56162;DHT22;42045;52.986;6.014;2022-08-03T05:33:57;24.50;99.90
56162;DHT22;42045;52.986;6.014;2022-08-03T05:36:26;24.80;99.90
56162;DHT22;42045;52.986;6.014;2022-08-03T05:38:52;25.10;99.90
56162;DHT22;42045;52.986;6.014;2022-08-03T05:41:18;25.50;99.90
56162;DHT22;42045;52.986;6.014;2022-08-03T05:43:44;25.90;99.90
56162;DHT22;42045;52.986;6.014;2022-08-03T05:46:09;26.40;99.90
56162;DHT22;42045;52.986;6.014;2022-08-03T05:48:35;26.40;99.90
56162;DHT22;42045;52.986;6.014;2022-08-03T05:51:01;26.20;99.90
56162;DHT22;42045;52.986;6.014;2022-08-03T05:53:26;26.20;99.90
56162;DHT22;42045;52.986;6.014;2022-08-03T05:55:53;26.50;99.90
56162;DHT22;42045;52.986;6.014;2022-08-03T05:58:19;26.70;99.90
56162;DHT22;42045;52.986;6.014;2022-08-03T06:00:45;26.90;99.90
56162;DHT22;42045;52.986;6.014;2022-08-03T06:03:10;26.80;99.90
56162;DHT22;42045;52.986;6.014;2022-08-03T06:05:41;27.00;99.90
56162;DHT22;42045;52.986;6.014;2022-08-03T06:08:07;27.10;99.90
56162;DHT22;42045;52.986;6.014;2022-08-03T06:10:32;27.30;99.90
56162;DHT22;42045;52.986;6.014;2022-08-03T06:13:01;27.80;99.90
56162;DHT22;42045;52.986;6.014;2022-08-03T06:15:32;28.20;99.90
56162;DHT22;42045;52.986;6.014;2022-08-03T06:17:59;29.00;99.90
56162;DHT22;42045;52.986;6.014;2022-08-03T06:20:26;29.70;99.90
56162;DHT22;42045;52.986;6.014;2022-08-03T06:22:52;30.50;99.90
56162;DHT22;42045;52.986;6.014;2022-08-03T06:25:18;30.90;99.90
56162;DHT22;42045;52.986;6.014;2022-08-03T06:27:44;31.60;99.20
56162;DHT22;42045;52.986;6.014;2022-08-03T06:30:10;31.80;98.00
56162;DHT22;42045;52.986;6.014;2022-08-03T06:32:36;31.80;98.00
56162;DHT22;42045;52.986;6.014;2022-08-03T06:35:03;31.70;97.80
56162;DHT22;42045;52.986;6.014;2022-08-03T06:37:28;31.70;98.10
56162;DHT22;42045;52.986;6.014;2022-08-03T06:39:54;30.90;97.70
56162;DHT22;42045;52.986;6.014;2022-08-03T06:45:52;28.90;99.40
56162;DHT22;42045;52.986;6.014;2022-08-03T06:48:17;28.00;99.90
56162;DHT22;42045;52.986;6.014;2022-08-03T06:50:43;27.80;99.90
56162;DHT22;42045;52.986;6.014;2022-08-03T06:53:09;28.10;99.90
56162;DHT22;42045;52.986;6.014;2022-08-03T06:55:35;28.60;99.90
56162;DHT22;42045;52.986;6.014;2022-08-03T06:58:00;28.50;99.90
56162;DHT22;42045;52.986;6.014;2022-08-03T07:00:27;28.70;99.90
56162;DHT22;42045;52.986;6.014;2022-08-03T07:02:58;28.60;99.90
56162;DHT22;42045;52.986;6.014;2022-08-03T07:05:24;28.20;99.90
56162;DHT22;42045;52.986;6.014;2022-08-03T07:07:54;28.00;99.90
56162;DHT22;42045;52.986;6.014;2022-08-03T07:10:20;27.40;99.90
56162;DHT22;42045;52.986;6.014;2022-08-03T07:12:45;27.10;99.90
56162;DHT22;42045;52.986;6.014;2022-08-03T07:15:13;27.50;99.90
56162;DHT22;42045;52.986;6.014;2022-08-03T07:17:39;28.20;99.90
56162;DHT22;42045;52.986;6.014;2022-08-03T07:20:06;28.40;99.90
56162;DHT22;42045;52.986;6.014;2022-08-03T07:22:33;27.80;99.90
56162;DHT22;42045;52.986;6.014;2022-08-03T07:24:58;27.30;99.90
56162;DHT22;42045;52.986;6.014;2022-08-03T07:27:24;26.90;99.90
56162;DHT22;42045;52.986;6.014;2022-08-03T07:29:54;26.60;99.90
56162;DHT22;42045;52.986;6.014;2022-08-03T07:32:20;26.20;99.90
56162;DHT22;42045;52.986;6.014;2022-08-03T07:34:46;26.10;99.90
56162;DHT22;42045;52.986;6.014;2022-08-03T07:37:11;26.20;99.90
56162;DHT22;42045;52.986;6.014;2022-08-03T07:39:37;26.20;99.90
56162;DHT22;42045;52.986;6.014;2022-08-03T07:42:03;26.60;99.90
56162;DHT22;42045;52.986;6.014;2022-08-03T07:44:29;26.90;99.90
56162;DHT22;42045;52.986;6.014;2022-08-03T07:46:55;27.20;99.90
56162;DHT22;42045;52.986;6.014;2022-08-03T07:49:22;27.50;99.90
56162;DHT22;42045;52.986;6.014;2022-08-03T07:51:47;27.70;99.90
56162;DHT22;42045;52.986;6.014;2022-08-03T07:54:33;27.90;99.90
56162;DHT22;42045;52.986;6.014;2022-08-03T07:56:59;28.00;99.90
56162;DHT22;42045;52.986;6.014;2022-08-03T07:59:24;28.00;99.90
56162;DHT22;42045;52.986;6.014;2022-08-03T08:01:51;27.90;99.90
56162;DHT22;42045;52.986;6.014;2022-08-03T08:04:18;27.80;99.90
56162;DHT22;42045;52.986;6.014;2022-08-03T08:06:44;27.40;99.90
56162;DHT22;42045;52.986;6.014;2022-08-03T08:09:10;27.60;99.90
56162;DHT22;42045;52.986;6.014;2022-08-03T08:11:39;27.60;99.90
56162;DHT22;42045;52.986;6.014;2022-08-03T08:14:05;27.80;99.90
56162;DHT22;42045;52.986;6.014;2022-08-03T08:16:33;27.90;99.90
56162;DHT22;42045;52.986;6.014;2022-08-03T08:18:59;27.70;99.90
56162;DHT22;42045;52.986;6.014;2022-08-03T08:21:26;27.50;99.90
56162;DHT22;42045;52.986;6.014;2022-08-03T08:23:52;27.10;99.90
56162;DHT22;42045;52.986;6.014;2022-08-03T08:26:18;27.00;99.90
56162;DHT22;42045;52.986;6.014;2022-08-03T08:28:44;27.20;99.90
56162;DHT22;42045;52.986;6.014;2022-08-03T08:31:11;27.40;99.90
56162;DHT22;42045;52.986;6.014;2022-08-03T08:33:40;27.60;99.90
56162;DHT22;42045;52.986;6.014;2022-08-03T08:36:06;27.70;99.90
56162;DHT22;42045;52.986;6.014;2022-08-03T08:38:34;27.70;99.90
56162;DHT22;42045;52.986;6.014;2022-08-03T08:41:00;27.70;99.90
56162;DHT22;42045;52.986;6.014;2022-08-03T08:43:26;27.60;99.90
56162;DHT22;42045;52.986;6.014;2022-08-03T08:45:53;27.60;99.90
56162;DHT22;42045;52.986;6.014;2022-08-03T08:48:24;27.70;99.90
56162;DHT22;42045;52.986;6.014;2022-08-03T08:50:55;27.70;99.90
56162;DHT22;42045;52.986;6.014;2022-08-03T08:53:25;27.70;99.90
56162;DHT22;42045;52.986;6.014;2022-08-03T08:55:54;27.70;99.90
56162;DHT22;42045;52.986;6.014;2022-08-03T08:58:27;27.70;99.90
56162;DHT22;42045;52.986;6.014;2022-08-03T09:00:55;27.50;99.90
56162;DHT22;42045;52.986;6.014;2022-08-03T09:03:21;27.40;99.90
56162;DHT22;42045;52.986;6.014;2022-08-03T09:05:47;27.60;99.90
56162;DHT22;42045;52.986;6.014;2022-08-03T09:08:14;27.70;99.90
56162;DHT22;42045;52.986;6.014;2022-08-03T09:10:40;27.80;99.90
56162;DHT22;42045;52.986;6.014;2022-08-03T09:13:07;27.90;99.90
56162;DHT22;42045;52.986;6.014;2022-08-03T09:15:34;28.10;99.90
56162;DHT22;42045;52.986;6.014;2022-08-03T09:18:02;28.20;99.90
56162;DHT22;42045;52.986;6.014;2022-08-03T09:20:33;28.10;99.90
56162;DHT22;42045;52.986;6.014;2022-08-03T09:23:03;28.10;99.90
56162;DHT22;42045;52.986;6.014;2022-08-03T09:25:37;28.20;99.90
56162;DHT22;42045;52.986;6.014;2022-08-03T09:28:11;27.90;99.90
56162;DHT22;42045;52.986;6.014;2022-08-03T09:30:40;27.80;99.90
56162;DHT22;42045;52.986;6.014;2022-08-03T09:33:11;27.90;99.90
56162;DHT22;42045;52.986;6.014;2022-08-03T09:35:46;27.70;99.90
56162;DHT22;42045;52.986;6.014;2022-08-03T09:38:13;27.60;99.90
56162;DHT22;42045;52.986;6.014;2022-08-03T09:40:39;27.60;99.90
56162;DHT22;42045;52.986;6.014;2022-08-03T09:43:06;27.50;99.90
56162;DHT22;42045;52.986;6.014;2022-08-03T09:45:38;27.60;99.90
56162;DHT22;42045;52.986;6.014;2022-08-03T09:48:31;27.70;99.90
56162;DHT22;42045;52.986;6.014;2022-08-03T09:51:01;27.60;99.90
56162;DHT22;42045;52.986;6.014;2022-08-03T09:53:28;27.80;99.90
56162;DHT22;42045;52.986;6.014;2022-08-03T09:57:24;28.10;99.90
56162;DHT22;42045;52.986;6.014;2022-08-03T09:59:52;28.30;99.90
56162;DHT22;42045;52.986;6.014;2022-08-03T10:02:23;28.30;99.90
56162;DHT22;42045;52.986;6.014;2022-08-03T10:04:50;28.20;99.90
56162;DHT22;42045;52.986;6.014;2022-08-03T10:07:24;28.20;99.90
56162;DHT22;42045;52.986;6.014;2022-08-03T10:10:01;28.20;99.90
56162;DHT22;42045;52.986;6.014;2022-08-03T10:12:28;28.30;99.90
56162;DHT22;42045;52.986;6.014;2022-08-03T10:14:54;28.40;99.90
56162;DHT22;42045;52.986;6.014;2022-08-03T10:17:21;28.20;99.90
56162;DHT22;42045;52.986;6.014;2022-08-03T10:19:47;28.30;99.90
56162;DHT22;42045;52.986;6.014;2022-08-03T10:27:22;28.40;99.90
56162;DHT22;42045;52.986;6.014;2022-08-03T10:29:54;28.40;99.90
56162;DHT22;42045;52.986;6.014;2022-08-03T10:32:43;28.40;99.90
56162;DHT22;42045;52.986;6.014;2022-08-03T10:35:18;28.30;99.90
56162;DHT22;42045;52.986;6.014;2022-08-03T10:40:29;28.10;99.90
56162;DHT22;42045;52.986;6.014;2022-08-03T10:43:09;28.20;99.90
56162;DHT22;42045;52.986;6.014;2022-08-03T10:45:42;28.10;99.90
56162;DHT22;42045;52.986;6.014;2022-08-03T10:48:09;28.10;99.90
56162;DHT22;42045;52.986;6.014;2022-08-03T10:50:36;28.00;99.90
56162;DHT22;42045;52.986;6.014;2022-08-03T10:53:05;27.90;99.90
56162;DHT22;42045;52.986;6.014;2022-08-03T10:55:36;27.80;99.90
56162;DHT22;42045;52.986;6.014;2022-08-03T11:01:06;27.90;99.90
56162;DHT22;42045;52.986;6.014;2022-08-03T11:03:33;27.90;99.90
56162;DHT22;42045;52.986;6.014;2022-08-03T11:08:46;28.10;99.90
56162;DHT22;42045;52.986;6.014;2022-08-03T11:14:03;28.00;99.90
56162;DHT22;42045;52.986;6.014;2022-08-03T11:16:32;28.00;99.90
56162;DHT22;42045;52.986;6.014;2022-08-03T11:19:04;28.10;99.90
56162;DHT22;42045;52.986;6.014;2022-08-03T11:21:54;28.20;99.90
56162;DHT22;42045;52.986;6.014;2022-08-03T11:27:27;28.10;99.90
56162;DHT22;42045;52.986;6.014;2022-08-03T11:30:10;28.10;99.90
56162;DHT22;42045;52.986;6.014;2022-08-03T11:43:06;28.10;99.90
56162;DHT22;42045;52.986;6.014;2022-08-03T11:45:33;28.10;99.90
56162;DHT22;42045;52.986;6.014;2022-08-03T11:48:11;28.20;99.90
56162;DHT22;42045;52.986;6.014;2022-08-03T11:50:37;28.10;99.90
56162;DHT22;42045;52.986;6.014;2022-08-03T11:53:04;28.00;99.90
56162;DHT22;42045;52.986;6.014;2022-08-03T11:55:31;27.90;99.90
56162;DHT22;42045;52.986;6.014;2022-08-03T11:58:00;28.00;99.90
56162;DHT22;42045;52.986;6.014;2022-08-03T12:03:14;28.00;99.90
56162;DHT22;42045;52.986;6.014;2022-08-03T12:05:48;28.00;99.90
56162;DHT22;42045;52.986;6.014;2022-08-03T12:08:17;27.90;99.90
56162;DHT22;42045;52.986;6.014;2022-08-03T12:10:48;27.90;99.90
56162;DHT22;42045;52.986;6.014;2022-08-03T12:13:14;28.00;99.90
56162;DHT22;42045;52.986;6.014;2022-08-03T12:15:40;28.10;99.90
56162;DHT22;42045;52.986;6.014;2022-08-03T12:18:15;28.20;99.90
56162;DHT22;42045;52.986;6.014;2022-08-03T12:20:41;28.40;99.90
56162;DHT22;42045;52.986;6.014;2022-08-03T12:23:08;28.10;99.90
56162;DHT22;42045;52.986;6.014;2022-08-03T12:25:34;28.20;99.90
56162;DHT22;42045;52.986;6.014;2022-08-03T12:28:11;28.30;99.90
56162;DHT22;42045;52.986;6.014;2022-08-03T12:30:38;28.30;99.90
56162;DHT22;42045;52.986;6.014;2022-08-03T12:33:23;28.30;99.90
56162;DHT22;42045;52.986;6.014;2022-08-03T12:36:10;28.30;99.90
56162;DHT22;42045;52.986;6.014;2022-08-03T12:38:37;28.20;99.90
56162;DHT22;42045;52.986;6.014;2022-08-03T12:41:05;28.20;99.90
56162;DHT22;42045;52.986;6.014;2022-08-03T12:43:31;28.10;99.90
56162;DHT22;42045;52.986;6.014;2022-08-03T12:46:08;28.20;99.90
56162;DHT22;42045;52.986;6.014;2022-08-03T12:48:34;28.30;99.90
56162;DHT22;42045;52.986;6.014;2022-08-03T12:51:08;28.40;99.90
56162;DHT22;42045;52.986;6.014;2022-08-03T12:53:34;28.40;99.90
56162;DHT22;42045;52.986;6.014;2022-08-03T12:56:04;28.50;99.90
56162;DHT22;42045;52.986;6.014;2022-08-03T12:58:32;28.60;99.90
56162;DHT22;42045;52.986;6.014;2022-08-03T13:00:58;28.70;99.90
56162;DHT22;42045;52.986;6.014;2022-08-03T13:03:24;28.70;99.90
56162;DHT22;42045;52.986;6.014;2022-08-03T13:05:53;28.80;99.90
56162;DHT22;42045;52.986;6.014;2022-08-03T13:08:24;28.80;99.90
56162;DHT22;42045;52.986;6.014;2022-08-03T13:10:53;28.80;99.90
56162;DHT22;42045;52.986;6.014;2022-08-03T13:13:37;28.80;99.90
56162;DHT22;42045;52.986;6.014;2022-08-03T13:16:03;28.80;99.90
56162;DHT22;42045;52.986;6.014;2022-08-03T13:18:28;28.70;99.90
56162;DHT22;42045;52.986;6.014;2022-08-03T13:20:54;28.70;99.90
56162;DHT22;42045;52.986;6.014;2022-08-03T13:23:20;28.70;99.90
56162;DHT22;42045;52.986;6.014;2022-08-03T13:25:45;28.60;99.90
56162;DHT22;42045;52.986;6.014;2022-08-03T13:28:11;28.60;99.90
56162;DHT22;42045;52.986;6.014;2022-08-03T13:30:38;28.70;99.90
56162;DHT22;42045;52.986;6.014;2022-08-03T13:33:05;28.80;99.90
56162;DHT22;42045;52.986;6.014;2022-08-03T13:35:30;28.80;99.90
56162;DHT22;42045;52.986;6.014;2022-08-03T13:37:56;28.80;99.90
56162;DHT22;42045;52.986;6.014;2022-08-03T13:40:21;28.70;99.90
56162;DHT22;42045;52.986;6.014;2022-08-03T13:42:47;28.60;99.90
56162;DHT22;42045;52.986;6.014;2022-08-03T13:45:13;28.60;99.90
56162;DHT22;42045;52.986;6.014;2022-08-03T13:47:44;28.60;99.90
56162;DHT22;42045;52.986;6.014;2022-08-03T13:50:13;28.60;99.90
56162;DHT22;42045;52.986;6.014;2022-08-03T13:52:39;28.60;99.90
56162;DHT22;42045;52.986;6.014;2022-08-03T13:55:06;28.70;99.90
56162;DHT22;42045;52.986;6.014;2022-08-03T13:57:33;28.70;99.90
56162;DHT22;42045;52.986;6.014;2022-08-03T14:00:00;28.80;99.90
56162;DHT22;42045;52.986;6.014;2022-08-03T14:02:26;28.80;99.90
56162;DHT22;42045;52.986;6.014;2022-08-03T14:04:51;28.90;99.90
56162;DHT22;42045;52.986;6.014;2022-08-03T14:07:19;28.60;99.90
56162;DHT22;42045;52.986;6.014;2022-08-03T14:09:44;28.50;99.90
56162;DHT22;42045;52.986;6.014;2022-08-03T14:12:10;28.60;99.90
56162;DHT22;42045;52.986;6.014;2022-08-03T14:14:36;28.50;99.90
56162;DHT22;42045;52.986;6.014;2022-08-03T14:17:01;28.50;99.90
56162;DHT22;42045;52.986;6.014;2022-08-03T14:19:27;28.60;99.90
56162;DHT22;42045;52.986;6.014;2022-08-03T14:21:53;28.60;99.90
56162;DHT22;42045;52.986;6.014;2022-08-03T14:24:18;28.60;99.90
56162;DHT22;42045;52.986;6.014;2022-08-03T14:26:44;28.80;99.90
56162;DHT22;42045;52.986;6.014;2022-08-03T14:29:10;28.70;99.90
56162;DHT22;42045;52.986;6.014;2022-08-03T14:31:36;28.70;99.90
56162;DHT22;42045;52.986;6.014;2022-08-03T14:34:02;28.70;99.90
56162;DHT22;42045;52.986;6.014;2022-08-03T14:36:27;28.40;99.90
56162;DHT22;42045;52.986;6.014;2022-08-03T14:38:53;28.40;99.90
56162;DHT22;42045;52.986;6.014;2022-08-03T14:41:19;28.40;99.90
56162;DHT22;42045;52.986;6.014;2022-08-03T14:43:45;28.40;99.90
56162;DHT22;42045;52.986;6.014;2022-08-03T14:46:11;28.50;99.90
56162;DHT22;42045;52.986;6.014;2022-08-03T14:48:45;28.60;99.90
56162;DHT22;42045;52.986;6.014;2022-08-03T14:51:11;28.70;99.90
56162;DHT22;42045;52.986;6.014;2022-08-03T14:53:40;28.80;99.90
56162;DHT22;42045;52.986;6.014;2022-08-03T14:56:06;28.70;99.90
56162;DHT22;42045;52.986;6.014;2022-08-03T14:58:32;28.70;99.90
56162;DHT22;42045;52.986;6.014;2022-08-03T15:00:57;28.70;99.90
56162;DHT22;42045;52.986;6.014;2022-08-03T15:03:24;28.80;99.90
56162;DHT22;42045;52.986;6.014;2022-08-03T15:05:54;28.90;99.90
56162;DHT22;42045;52.986;6.014;2022-08-03T15:08:22;28.80;98.80
56162;DHT22;42045;52.986;6.014;2022-08-03T15:10:48;28.80;99.30
56162;DHT22;42045;52.986;6.014;2022-08-03T15:13:15;28.70;99.60
56162;DHT22;42045;52.986;6.014;2022-08-03T15:15:47;28.60;99.50
56162;DHT22;42045;52.986;6.014;2022-08-03T15:18:13;28.60;99.50
56162;DHT22;42045;52.986;6.014;2022-08-03T15:20:43;28.50;99.30
56162;DHT22;42045;52.986;6.014;2022-08-03T15:23:11;28.40;99.00
56162;DHT22;42045;52.986;6.014;2022-08-03T15:25:37;28.30;99.50
56162;DHT22;42045;52.986;6.014;2022-08-03T15:28:05;28.20;99.70
56162;DHT22;42045;52.986;6.014;2022-08-03T15:30:31;28.20;99.60
56162;DHT22;42045;52.986;6.014;2022-08-03T15:33:01;28.10;99.50
56162;DHT22;42045;52.986;6.014;2022-08-03T15:35:27;28.10;99.90
56162;DHT22;42045;52.986;6.014;2022-08-03T15:37:53;28.10;99.40
56162;DHT22;42045;52.986;6.014;2022-08-03T15:40:20;28.10;99.70
56162;DHT22;42045;52.986;6.014;2022-08-03T15:42:46;28.10;99.90
56162;DHT22;42045;52.986;6.014;2022-08-03T15:45:12;28.00;99.80
56162;DHT22;42045;52.986;6.014;2022-08-03T15:47:38;27.90;99.30
56162;DHT22;42045;52.986;6.014;2022-08-03T15:50:05;27.80;99.10
56162;DHT22;42045;52.986;6.014;2022-08-03T15:52:32;27.90;99.40
56162;DHT22;42045;52.986;6.014;2022-08-03T15:55:10;27.80;99.40
56162;DHT22;42045;52.986;6.014;2022-08-03T15:57:40;27.80;99.50
56162;DHT22;42045;52.986;6.014;2022-08-03T16:00:07;27.70;99.60
56162;DHT22;42045;52.986;6.014;2022-08-03T16:02:35;27.70;99.90
56162;DHT22;42045;52.986;6.014;2022-08-03T16:05:01;27.60;99.30
56162;DHT22;42045;52.986;6.014;2022-08-03T16:07:27;27.60;99.90
56162;DHT22;42045;52.986;6.014;2022-08-03T16:10:09;27.60;99.90
56162;DHT22;42045;52.986;6.014;2022-08-03T16:12:36;27.50;99.20
56162;DHT22;42045;52.986;6.014;2022-08-03T16:15:04;27.40;98.70
56162;DHT22;42045;52.986;6.014;2022-08-03T16:17:31;27.40;99.10
56162;DHT22;42045;52.986;6.014;2022-08-03T16:19:57;27.40;99.50
56162;DHT22;42045;52.986;6.014;2022-08-03T16:22:24;27.40;99.10